Saxaren — SKHW — position and weather

sailwx.info

Track history (hours):
 
Tides and Currents Weather Stations Pressure Air Temp Water Temp Dewpoint Dewpoint Depression Visibility Wind Speed Wind Dir Waves Ship Positions

Saxaren

Last reported at 2017-Sep-21 16:49 UTC. Time now 2017-Sep-22 13:36 UTC.
Position N 59°30' E 018°51'.

Length 37 m; draft 3 m.

Type: Passenger vessel. MMSI: 265512110.

Date/timePositionNaut miles runAvg speedWind from/ knotsBaromVisibWave heightAir tempDewpointWater temp
2017-Sep-21 16:49N 59°30' E 018°51'4 9.8
2017-Sep-21 16:25N 59°28' E 018°44'2 5.8
2017-Sep-21 16:00N 59°26' E 018°41'7 4.9
2017-Sep-21 14:39N 59°25' E 018°29'0 3.4
2017-Sep-21 14:30N 59°26' E 018°28'4 7.9
2017-Sep-21 14:00N 59°24' E 018°21'4 8.3
2017-Sep-21 13:31N 59°21' E 018°15'510.6
2017-Sep-21 13:00N 59°20' E 018°04'0 0.1
2017-Sep-21 12:30N 59°20' E 018°05'0 0.0
2017-Sep-21 12:00N 59°20' E 018°05'0 0.0
2017-Sep-21 11:30N 59°20' E 018°05'0 0.0
2017-Sep-21 11:01N 59°20' E 018°05'0 0.0
2017-Sep-21 10:30N 59°20' E 018°05'0 0.0
2017-Sep-21 10:00N 59°20' E 018°05'0 0.0
2017-Sep-21 09:30N 59°20' E 018°05'0 0.0
2017-Sep-21 09:01N 59°20' E 018°05'0 0.0
2017-Sep-21 08:30N 59°20' E 018°05'0 0.0
2017-Sep-21 08:00N 59°20' E 018°05'0 0.0
2017-Sep-21 07:30N 59°20' E 018°05'0 0.0
2017-Sep-21 07:00N 59°20' E 018°05'0 0.0
2017-Sep-21 06:30N 59°20' E 018°05'0 0.0
2017-Sep-21 06:00N 59°20' E 018°05'0 0.0
2017-Sep-21 05:30N 59°20' E 018°05'0 0.0
2017-Sep-21 05:00N 59°20' E 018°05'0 0.0
2017-Sep-21 04:30N 59°20' E 018°05'0 0.0
2017-Sep-21 04:00N 59°20' E 018°05'0 0.0
2017-Sep-21 03:30N 59°20' E 018°05'0 0.0
2017-Sep-21 03:00N 59°20' E 018°05'0 0.0
2017-Sep-21 02:30N 59°20' E 018°05'0 0.0
2017-Sep-21 02:00N 59°20' E 018°05'0 0.0
2017-Sep-21 01:31N 59°20' E 018°05'0 0.0
2017-Sep-21 01:00N 59°20' E 018°05'0 0.0
2017-Sep-21 00:30N 59°20' E 018°05'0 0.0
2017-Sep-21 00:00N 59°20' E 018°05'0 0.0
2017-Sep-20 23:30N 59°20' E 018°05'0 0.0
2017-Sep-20 23:00N 59°20' E 018°05'0 0.0
2017-Sep-20 22:30N 59°20' E 018°05'0 0.0
2017-Sep-20 22:00N 59°20' E 018°05'0 0.0
2017-Sep-20 21:30N 59°20' E 018°05'0 0.0
2017-Sep-20 21:00N 59°20' E 018°05'0 0.0
2017-Sep-20 20:30N 59°20' E 018°05'0 0.0
2017-Sep-20 20:00N 59°20' E 018°05'0 0.0
2017-Sep-20 19:30N 59°20' E 018°05'0 0.0
2017-Sep-20 19:00N 59°20' E 018°05'0 0.0
2017-Sep-20 18:30N 59°20' E 018°05'0 0.0
2017-Sep-20 18:00N 59°20' E 018°05'0 0.0
2017-Sep-20 17:30N 59°20' E 018°05'0 0.0
2017-Sep-20 17:01N 59°20' E 018°05'0 0.0
2017-Sep-20 16:30N 59°20' E 018°05'2 4.6
2017-Sep-20 16:01N 59°19' E 018°09'612.0
2017-Sep-20 15:30N 59°23' E 018°18'3 5.8
2017-Sep-20 15:00N 59°25' E 018°21'9 6.7
2017-Sep-20 13:36N 59°26' E 018°40'1 4.6
2017-Sep-20 13:27N 59°26' E 018°41'4 7.6
2017-Sep-20 12:52N 59°28' E 018°48'2 0.8
2017-Sep-20 09:56N 59°30' E 018°51'11 6.4
2017-Sep-20 08:16N 59°24' E 018°33'3 9.7
2017-Sep-20 08:00N 59°25' E 018°28'4 7.2
2017-Sep-20 07:29N 59°24' E 018°21'3 5.2
2017-Sep-20 07:00N 59°22' E 018°18'611.4
2017-Sep-20 06:30N 59°19' E 018°09'2 5.0
2017-Sep-20 06:00N 59°20' E 018°05'0 0.0
2017-Sep-20 05:30N 59°20' E 018°05'0 0.0
2017-Sep-20 05:00N 59°20' E 018°05'0 0.0
2017-Sep-20 04:30N 59°20' E 018°05'0 0.0
2017-Sep-20 04:00N 59°20' E 018°05'0 0.0
2017-Sep-20 03:30N 59°20' E 018°05'0 0.0
2017-Sep-20 03:00N 59°20' E 018°05'0 0.0
2017-Sep-20 02:30N 59°20' E 018°05'0 0.0
2017-Sep-20 02:00N 59°20' E 018°05'0 0.0
2017-Sep-20 01:30N 59°20' E 018°05'0 0.0
2017-Sep-20 01:00N 59°20' E 018°05'0 0.0
2017-Sep-20 00:30N 59°20' E 018°05'0 0.0
2017-Sep-20 00:00N 59°20' E 018°05'0 0.0
2017-Sep-19 23:30N 59°20' E 018°05'0 0.0
2017-Sep-19 23:00N 59°20' E 018°05'0 0.0
2017-Sep-19 22:30N 59°20' E 018°05'0 0.0
2017-Sep-19 22:00N 59°20' E 018°05'0 0.0
2017-Sep-19 21:30N 59°20' E 018°05'0 0.0
2017-Sep-19 21:00N 59°20' E 018°05'0 0.0
2017-Sep-19 20:30N 59°20' E 018°05'0 0.0
2017-Sep-19 20:00N 59°20' E 018°05'0 0.0
2017-Sep-19 19:30N 59°20' E 018°05'0 0.0
2017-Sep-19 19:00N 59°20' E 018°05'0 0.0
2017-Sep-19 18:30N 59°20' E 018°05'0 0.0
2017-Sep-19 18:00N 59°20' E 018°05'0 0.0
2017-Sep-19 17:30N 59°20' E 018°05'0 0.0
2017-Sep-19 17:00N 59°20' E 018°05'0 0.0
2017-Sep-19 16:30N 59°20' E 018°05'3 5.3
2017-Sep-19 16:01N 59°19' E 018°10'611.4
2017-Sep-19 15:30N 59°23' E 018°19'3 5.7
2017-Sep-19 15:00N 59°25' E 018°21'8 1.3
2017-Sep-19 08:39N 59°24' E 018°37'2 4.0
2017-Sep-19 08:15N 59°24' E 018°34'3 8.8
2017-Sep-19 07:55N 59°25' E 018°28'4 8.8
2017-Sep-19 07:30N 59°25' E 018°21'3 6.7
2017-Sep-19 07:00N 59°22' E 018°18'611.6
2017-Sep-19 06:30N 59°19' E 018°09'2 5.0
2017-Sep-19 06:01N 59°20' E 018°05'0 0.0
2017-Sep-19 05:31N 59°20' E 018°05'0 0.0
2017-Sep-19 05:01N 59°20' E 018°05'0 0.0
2017-Sep-19 04:31N 59°20' E 018°05'0 0.0
2017-Sep-19 04:01N 59°20' E 018°05'0 0.0
2017-Sep-19 03:30N 59°20' E 018°05'0 0.0
2017-Sep-19 03:01N 59°20' E 018°05'0 0.0
2017-Sep-19 02:31N 59°20' E 018°05'0 0.0
2017-Sep-19 02:01N 59°20' E 018°05'0 0.0
2017-Sep-19 01:31N 59°20' E 018°05'0 0.0
2017-Sep-19 01:01N 59°20' E 018°05'0 0.0
2017-Sep-19 00:31N 59°20' E 018°05'0 0.0
2017-Sep-19 00:01N 59°20' E 018°05'0 0.0
2017-Sep-18 23:31N 59°20' E 018°05'0 0.0
2017-Sep-18 23:01N 59°20' E 018°05'0 0.0
2017-Sep-18 22:30N 59°20' E 018°05'0 0.0
2017-Sep-18 22:01N 59°20' E 018°05'0 0.0
2017-Sep-18 21:31N 59°20' E 018°05'0 0.0
2017-Sep-18 21:01N 59°20' E 018°05'0 0.0
2017-Sep-18 20:31N 59°20' E 018°05'0 0.0
2017-Sep-18 20:01N 59°20' E 018°05'0 0.0
2017-Sep-18 19:31N 59°20' E 018°05'0 0.0
2017-Sep-18 19:01N 59°20' E 018°05'0 0.0
2017-Sep-18 18:31N 59°20' E 018°05'0 0.0
2017-Sep-18 18:01N 59°20' E 018°05'0 0.0
2017-Sep-18 17:30N 59°20' E 018°05'0 0.0
2017-Sep-18 17:01N 59°20' E 018°05'0 0.0
2017-Sep-18 16:30N 59°20' E 018°05'0 0.0
2017-Sep-18 16:01N 59°20' E 018°05'0 0.0
2017-Sep-18 15:31N 59°20' E 018°05'0 0.0
2017-Sep-18 15:01N 59°20' E 018°05'0 0.0
2017-Sep-18 14:31N 59°20' E 018°05'0 0.0
2017-Sep-18 14:01N 59°20' E 018°05'0 0.0
2017-Sep-18 13:31N 59°20' E 018°05'0 0.0
2017-Sep-18 13:01N 59°20' E 018°05'0 0.0
2017-Sep-18 12:31N 59°20' E 018°05'0 0.0
2017-Sep-18 12:01N 59°20' E 018°05'0 0.0
2017-Sep-18 11:31N 59°20' E 018°05'0 0.0
2017-Sep-18 11:01N 59°20' E 018°05'0 0.0
2017-Sep-18 10:31N 59°20' E 018°05'0 0.0
2017-Sep-18 10:01N 59°20' E 018°05'0 0.0
2017-Sep-18 09:31N 59°20' E 018°05'0 0.0
2017-Sep-18 09:00N 59°20' E 018°05'0 0.0
2017-Sep-18 08:31N 59°20' E 018°05'0 0.0
2017-Sep-18 08:01N 59°20' E 018°05'0 0.0
2017-Sep-18 07:31N 59°20' E 018°05'0 0.0
2017-Sep-18 07:01N 59°20' E 018°05'0 0.0
2017-Sep-18 06:31N 59°20' E 018°05'0 0.0
2017-Sep-18 06:01N 59°20' E 018°05'0 0.0
2017-Sep-18 05:30N 59°20' E 018°05'0 0.0
2017-Sep-18 05:00N 59°20' E 018°05'0 0.0
2017-Sep-18 04:30N 59°20' E 018°05'0 0.0
2017-Sep-18 04:01N 59°20' E 018°05'0 0.0
2017-Sep-18 03:31N 59°20' E 018°05'0 0.0
2017-Sep-18 03:01N 59°20' E 018°05'0 0.0
2017-Sep-18 02:31N 59°20' E 018°05'0 0.0
2017-Sep-18 02:00N 59°20' E 018°05'0 0.0
2017-Sep-18 01:31N 59°20' E 018°05'0 0.0
2017-Sep-18 01:01N 59°20' E 018°05'0 0.0
2017-Sep-18 00:31N 59°20' E 018°05'0 0.0
2017-Sep-18 00:01N 59°20' E 018°05'0 0.0
2017-Sep-17 23:31N 59°20' E 018°05'0 0.0
2017-Sep-17 23:01N 59°20' E 018°05'0 0.0
2017-Sep-17 22:30N 59°20' E 018°05'0 0.0
2017-Sep-17 22:01N 59°20' E 018°05'0 0.0
2017-Sep-17 21:31N 59°20' E 018°05'0 0.0
2017-Sep-17 21:01N 59°20' E 018°05'0 0.0
2017-Sep-17 20:31N 59°20' E 018°05'0 0.0
2017-Sep-17 20:00N 59°20' E 018°05'0 0.0
2017-Sep-17 19:31N 59°20' E 018°05'0 0.0
2017-Sep-17 19:01N 59°20' E 018°05'0 0.0
2017-Sep-17 18:30N 59°20' E 018°05'0 0.0
2017-Sep-17 18:01N 59°20' E 018°05'0 0.0
2017-Sep-17 17:31N 59°20' E 018°05'0 0.0
2017-Sep-17 17:01N 59°20' E 018°05'0 0.0
2017-Sep-17 16:30N 59°20' E 018°05'0 0.0
2017-Sep-17 16:01N 59°20' E 018°05'0 0.0
2017-Sep-17 15:31N 59°20' E 018°05'0 0.0
2017-Sep-17 15:01N 59°20' E 018°05'0 0.0
2017-Sep-17 14:31N 59°20' E 018°05'0 0.0
2017-Sep-17 14:01N 59°20' E 018°05'4 8.9
2017-Sep-17 13:30N 59°19' E 018°13'2 4.9
2017-Sep-17 13:01N 59°18' E 018°18'5 9.0
2017-Sep-17 12:30N 59°15' E 018°23'8 2.6
2017-Sep-17 09:36N 59°07' E 018°26'4 8.7
2017-Sep-17 09:11N 59°05' E 018°21'212.4
2017-Sep-17 09:01N 59°03' E 018°20'5 0.7
2017-Sep-17 02:01N 59°08' E 018°24'0 0.0
2017-Sep-17 01:54N 59°08' E 018°24'0 0.0
2017-Sep-16 15:25N 59°08' E 018°25'1 0.4
2017-Sep-16 12:11N 59°06' E 018°24'315.7
2017-Sep-16 12:00N 59°04' E 018°20'4 1.1
2017-Sep-16 08:10N 59°08' E 018°24'0 2.2
2017-Sep-16 07:58N 59°07' E 018°24'1 0.1
2017-Sep-16 02:37N 59°08' E 018°24'0 0.0
2017-Sep-16 02:15N 59°08' E 018°24'0 0.0
2017-Sep-15 22:34N 59°08' E 018°24'0 0.0
2017-Sep-15 22:11N 59°08' E 018°24'0 0.0
2017-Sep-15 21:50N 59°08' E 018°24'0 0.0
2017-Sep-15 19:28N 59°08' E 018°24'714.7
2017-Sep-15 19:00N 59°02' E 018°19'4 7.3
2017-Sep-15 18:30N 58°60' E 018°25'8 5.5
2017-Sep-15 17:08N 59°07' E 018°27'2 3.5
2017-Sep-15 16:40N 59°09' E 018°27'211.1
2017-Sep-15 16:28N 59°11' E 018°27'4 8.2
2017-Sep-15 16:01N 59°14' E 018°22'5 9.7
2017-Sep-15 15:30N 59°18' E 018°18'3 5.0
2017-Sep-15 15:00N 59°19' E 018°13'5 9.3
2017-Sep-15 14:30N 59°20' E 018°04'0 0.1
2017-Sep-15 14:00N 59°20' E 018°05'0 0.0
2017-Sep-15 13:30N 59°20' E 018°05'0 0.0
2017-Sep-15 13:00N 59°20' E 018°05'0 0.0
2017-Sep-15 12:30N 59°20' E 018°05'0 0.0
2017-Sep-15 12:00N 59°20' E 018°05'0 0.0
2017-Sep-15 11:30N 59°20' E 018°04'0 0.0
2017-Sep-15 11:00N 59°20' E 018°04'0 0.0
2017-Sep-15 10:30N 59°20' E 018°05'0 0.0
2017-Sep-15 10:00N 59°20' E 018°05'0 0.0
2017-Sep-15 09:30N 59°20' E 018°04'0 0.5
2017-Sep-15 09:01N 59°20' E 018°05'510.6
2017-Sep-15 08:30N 59°21' E 018°15'5 9.2
2017-Sep-15 08:00N 59°24' E 018°21'4 7.3
2017-Sep-15 07:30N 59°27' E 018°24'3 6.6
2017-Sep-15 07:00N 59°28' E 018°31'3 5.0
2017-Sep-15 06:28N 59°26' E 018°27'1 0.1
2017-Sep-14 14:36N 59°25' E 018°28'112.2
2017-Sep-14 14:30N 59°25' E 018°26'3 6.8
2017-Sep-14 13:59N 59°23' E 018°20'4 8.6
2017-Sep-14 13:30N 59°21' E 018°14'510.0
2017-Sep-14 13:00N 59°20' E 018°04'0 0.0
2017-Sep-14 12:30N 59°20' E 018°04'0 0.0
2017-Sep-14 12:00N 59°20' E 018°04'0 0.0
2017-Sep-14 11:30N 59°20' E 018°04'0 0.0
2017-Sep-14 11:00N 59°20' E 018°04'0 0.0
2017-Sep-14 10:29N 59°20' E 018°04'0 0.0
2017-Sep-14 10:00N 59°20' E 018°04'0 0.0
2017-Sep-14 09:31N 59°20' E 018°04'0 0.0
2017-Sep-14 09:00N 59°20' E 018°04'0 0.0
2017-Sep-14 08:30N 59°20' E 018°04'0 0.0
2017-Sep-14 08:00N 59°20' E 018°04'0 0.0
2017-Sep-14 07:30N 59°20' E 018°04'0 0.0
2017-Sep-14 07:00N 59°20' E 018°04'0 0.0
2017-Sep-14 06:30N 59°20' E 018°04'0 0.0
2017-Sep-14 06:00N 59°20' E 018°05'0 0.0
2017-Sep-14 05:30N 59°20' E 018°05'0 0.0
2017-Sep-14 05:00N 59°20' E 018°04'0 0.0
2017-Sep-14 04:30N 59°20' E 018°04'0 0.0
2017-Sep-14 04:00N 59°20' E 018°04'0 0.0
2017-Sep-14 03:31N 59°20' E 018°04'0 0.0
2017-Sep-14 03:01N 59°20' E 018°04'0 0.0
2017-Sep-14 02:31N 59°20' E 018°04'0 0.0
2017-Sep-14 02:00N 59°20' E 018°04'0 0.0
2017-Sep-14 01:31N 59°20' E 018°05'0 0.0
2017-Sep-14 01:00N 59°20' E 018°05'0 0.0
2017-Sep-14 00:30N 59°20' E 018°04'0 0.0
2017-Sep-14 00:00N 59°20' E 018°05'0 0.0
2017-Sep-13 23:30N 59°20' E 018°05'0 0.0
2017-Sep-13 23:01N 59°20' E 018°05'0 0.0
2017-Sep-13 22:30N 59°20' E 018°05'0 0.0
2017-Sep-13 22:00N 59°20' E 018°05'0 0.0
2017-Sep-13 21:30N 59°20' E 018°05'0 0.0
2017-Sep-13 21:00N 59°20' E 018°05'0 0.0
2017-Sep-13 20:31N 59°20' E 018°05'0 0.0
2017-Sep-13 20:01N 59°20' E 018°05'0 0.0
2017-Sep-13 19:30N 59°20' E 018°04'0 0.0
2017-Sep-13 19:00N 59°20' E 018°05'0 0.0
2017-Sep-13 18:30N 59°20' E 018°05'0 0.0
2017-Sep-13 18:01N 59°20' E 018°05'0 0.0
2017-Sep-13 17:30N 59°20' E 018°04'0 0.0
2017-Sep-13 17:00N 59°20' E 018°04'0 0.0
2017-Sep-13 16:31N 59°20' E 018°04'3 5.6
2017-Sep-13 16:00N 59°19' E 018°10'510.8
2017-Sep-13 15:30N 59°23' E 018°19'3 5.5
2017-Sep-13 15:00N 59°25' E 018°21'4 0.5
2017-Sep-13 07:57N 59°25' E 018°28'4 7.9
2017-Sep-13 07:30N 59°25' E 018°21'3 6.8
2017-Sep-13 07:00N 59°23' E 018°18'611.7
2017-Sep-13 06:30N 59°19' E 018°09'2 4.9
2017-Sep-13 06:00N 59°20' E 018°05'0 0.0
2017-Sep-13 05:30N 59°20' E 018°05'0 0.0
2017-Sep-13 05:00N 59°20' E 018°05'0 0.0
2017-Sep-13 04:30N 59°20' E 018°05'0 0.0
2017-Sep-13 04:00N 59°20' E 018°05'0 0.0
2017-Sep-13 03:30N 59°20' E 018°05'0 0.0
2017-Sep-13 03:00N 59°20' E 018°05'0 0.0
2017-Sep-13 02:30N 59°20' E 018°05'0 0.0
2017-Sep-13 02:00N 59°20' E 018°05'0 0.0
2017-Sep-13 01:30N 59°20' E 018°05'0 0.0
2017-Sep-13 01:00N 59°20' E 018°05'0 0.0
2017-Sep-13 00:30N 59°20' E 018°05'0 0.0
2017-Sep-13 00:00N 59°20' E 018°05'0 0.0
2017-Sep-12 23:30N 59°20' E 018°05'0 0.0
2017-Sep-12 23:00N 59°20' E 018°05'0 0.0
2017-Sep-12 22:30N 59°20' E 018°05'0 0.0
2017-Sep-12 22:00N 59°20' E 018°05'0 0.0
2017-Sep-12 21:30N 59°20' E 018°05'0 0.0
2017-Sep-12 21:00N 59°20' E 018°05'0 0.0
2017-Sep-12 20:30N 59°20' E 018°05'0 0.0
2017-Sep-12 20:00N 59°20' E 018°05'0 0.0
2017-Sep-12 19:30N 59°20' E 018°05'0 0.0
2017-Sep-12 19:00N 59°20' E 018°05'0 0.0
2017-Sep-12 18:30N 59°20' E 018°05'0 0.0
2017-Sep-12 18:00N 59°20' E 018°05'0 0.0
2017-Sep-12 17:30N 59°20' E 018°05'0 0.0
2017-Sep-12 17:00N 59°20' E 018°05'0 0.0
2017-Sep-12 16:30N 59°20' E 018°05'3 5.5
2017-Sep-12 16:00N 59°19' E 018°10'611.3
2017-Sep-12 15:30N 59°23' E 018°19'3 5.2
2017-Sep-12 14:59N 59°25' E 018°21'15 3.0
2017-Sep-12 09:56N 59°29' E 018°50'11 5.7
2017-Sep-12 07:57N 59°25' E 018°29'4 8.0
2017-Sep-12 07:29N 59°25' E 018°21'3 6.9
2017-Sep-12 07:00N 59°22' E 018°18'611.9
2017-Sep-12 06:30N 59°19' E 018°09'2 4.4
2017-Sep-12 06:01N 59°20' E 018°05'0 0.0
2017-Sep-12 05:30N 59°20' E 018°05'0 0.0
2017-Sep-12 05:01N 59°20' E 018°05'0 0.0
2017-Sep-12 04:30N 59°20' E 018°05'0 0.0
2017-Sep-12 04:00N 59°20' E 018°05'0 0.0
2017-Sep-12 03:30N 59°20' E 018°05'0 0.0
2017-Sep-12 03:00N 59°20' E 018°05'0 0.0
2017-Sep-12 02:31N 59°20' E 018°05'0 0.0
2017-Sep-12 02:00N 59°20' E 018°05'0 0.0
2017-Sep-12 01:30N 59°20' E 018°05'0 0.0
2017-Sep-12 01:01N 59°20' E 018°05'0 0.0
2017-Sep-12 00:31N 59°20' E 018°05'0 0.0
2017-Sep-12 00:01N 59°20' E 018°05'0 0.0
2017-Sep-11 23:31N 59°20' E 018°05'0 0.0
2017-Sep-11 23:01N 59°20' E 018°05'0 0.0
2017-Sep-11 22:30N 59°20' E 018°05'0 0.0
2017-Sep-11 22:00N 59°20' E 018°05'0 0.0
2017-Sep-11 21:31N 59°20' E 018°05'0 0.0
2017-Sep-11 21:01N 59°20' E 018°05'0 0.0
2017-Sep-11 20:30N 59°20' E 018°05'0 0.0
2017-Sep-11 20:00N 59°20' E 018°05'0 0.0
2017-Sep-11 19:31N 59°20' E 018°05'0 0.0
2017-Sep-11 19:00N 59°20' E 018°05'0 0.0
2017-Sep-11 18:31N 59°20' E 018°05'0 0.0
2017-Sep-11 18:01N 59°20' E 018°05'0 0.0
2017-Sep-11 17:31N 59°20' E 018°05'0 0.0
2017-Sep-11 17:00N 59°20' E 018°05'  
Track history (hours):
 
Tides and Currents Weather Stations Pressure Air Temp Water Temp Dewpoint Dewpoint Depression Visibility Wind Speed Wind Dir Waves Ship Positions

Saxaren

Last reported at 2017-Sep-21 16:49 UTC. Time now 2017-Sep-22 13:36 UTC.
Position N 59°30' E 018°51'.

Length 37 m; draft 3 m.

Type: Passenger vessel. MMSI: 265512110.

Date/timePositionNaut miles runAvg speedWind from/ knotsBaromVisibWave heightAir tempDewpointWater temp
2017-Sep-21 16:49N 59°30' E 018°51'4 9.8
2017-Sep-21 16:25N 59°28' E 018°44'2 5.8
2017-Sep-21 16:00N 59°26' E 018°41'7 4.9
2017-Sep-21 14:39N 59°25' E 018°29'0 3.4
2017-Sep-21 14:30N 59°26' E 018°28'4 7.9
2017-Sep-21 14:00N 59°24' E 018°21'4 8.3
2017-Sep-21 13:31N 59°21' E 018°15'510.6
2017-Sep-21 13:00N 59°20' E 018°04'0 0.1
2017-Sep-21 12:30N 59°20' E 018°05'0 0.0
2017-Sep-21 12:00N 59°20' E 018°05'0 0.0
2017-Sep-21 11:30N 59°20' E 018°05'0 0.0
2017-Sep-21 11:01N 59°20' E 018°05'0 0.0
2017-Sep-21 10:30N 59°20' E 018°05'0 0.0
2017-Sep-21 10:00N 59°20' E 018°05'0 0.0
2017-Sep-21 09:30N 59°20' E 018°05'0 0.0
2017-Sep-21 09:01N 59°20' E 018°05'0 0.0
2017-Sep-21 08:30N 59°20' E 018°05'0 0.0
2017-Sep-21 08:00N 59°20' E 018°05'0 0.0
2017-Sep-21 07:30N 59°20' E 018°05'0 0.0
2017-Sep-21 07:00N 59°20' E 018°05'0 0.0
2017-Sep-21 06:30N 59°20' E 018°05'0 0.0
2017-Sep-21 06:00N 59°20' E 018°05'0 0.0
2017-Sep-21 05:30N 59°20' E 018°05'0 0.0
2017-Sep-21 05:00N 59°20' E 018°05'0 0.0
2017-Sep-21 04:30N 59°20' E 018°05'0 0.0
2017-Sep-21 04:00N 59°20' E 018°05'0 0.0
2017-Sep-21 03:30N 59°20' E 018°05'0 0.0
2017-Sep-21 03:00N 59°20' E 018°05'0 0.0
2017-Sep-21 02:30N 59°20' E 018°05'0 0.0
2017-Sep-21 02:00N 59°20' E 018°05'0 0.0
2017-Sep-21 01:31N 59°20' E 018°05'0 0.0
2017-Sep-21 01:00N 59°20' E 018°05'0 0.0
2017-Sep-21 00:30N 59°20' E 018°05'0 0.0
2017-Sep-21 00:00N 59°20' E 018°05'0 0.0
2017-Sep-20 23:30N 59°20' E 018°05'0 0.0
2017-Sep-20 23:00N 59°20' E 018°05'0 0.0
2017-Sep-20 22:30N 59°20' E 018°05'0 0.0
2017-Sep-20 22:00N 59°20' E 018°05'0 0.0
2017-Sep-20 21:30N 59°20' E 018°05'0 0.0
2017-Sep-20 21:00N 59°20' E 018°05'0 0.0
2017-Sep-20 20:30N 59°20' E 018°05'0 0.0
2017-Sep-20 20:00N 59°20' E 018°05'0 0.0
2017-Sep-20 19:30N 59°20' E 018°05'0 0.0
2017-Sep-20 19:00N 59°20' E 018°05'0 0.0
2017-Sep-20 18:30N 59°20' E 018°05'0 0.0
2017-Sep-20 18:00N 59°20' E 018°05'0 0.0
2017-Sep-20 17:30N 59°20' E 018°05'0 0.0
2017-Sep-20 17:01N 59°20' E 018°05'0 0.0
2017-Sep-20 16:30N 59°20' E 018°05'2 4.6
2017-Sep-20 16:01N 59°19' E 018°09'612.0
2017-Sep-20 15:30N 59°23' E 018°18'3 5.8
2017-Sep-20 15:00N 59°25' E 018°21'9 6.7
2017-Sep-20 13:36N 59°26' E 018°40'1 4.6
2017-Sep-20 13:27N 59°26' E 018°41'4 7.6
2017-Sep-20 12:52N 59°28' E 018°48'2 0.8
2017-Sep-20 09:56N 59°30' E 018°51'11 6.4
2017-Sep-20 08:16N 59°24' E 018°33'3 9.7
2017-Sep-20 08:00N 59°25' E 018°28'4 7.2
2017-Sep-20 07:29N 59°24' E 018°21'3 5.2
2017-Sep-20 07:00N 59°22' E 018°18'611.4
2017-Sep-20 06:30N 59°19' E 018°09'2 5.0
2017-Sep-20 06:00N 59°20' E 018°05'0 0.0
2017-Sep-20 05:30N 59°20' E 018°05'0 0.0
2017-Sep-20 05:00N 59°20' E 018°05'0 0.0
2017-Sep-20 04:30N 59°20' E 018°05'0 0.0
2017-Sep-20 04:00N 59°20' E 018°05'0 0.0
2017-Sep-20 03:30N 59°20' E 018°05'0 0.0
2017-Sep-20 03:00N 59°20' E 018°05'0 0.0
2017-Sep-20 02:30N 59°20' E 018°05'0 0.0
2017-Sep-20 02:00N 59°20' E 018°05'0 0.0
2017-Sep-20 01:30N 59°20' E 018°05'0 0.0
2017-Sep-20 01:00N 59°20' E 018°05'0 0.0
2017-Sep-20 00:30N 59°20' E 018°05'0 0.0
2017-Sep-20 00:00N 59°20' E 018°05'0 0.0
2017-Sep-19 23:30N 59°20' E 018°05'0 0.0
2017-Sep-19 23:00N 59°20' E 018°05'0 0.0
2017-Sep-19 22:30N 59°20' E 018°05'0 0.0
2017-Sep-19 22:00N 59°20' E 018°05'0 0.0
2017-Sep-19 21:30N 59°20' E 018°05'0 0.0
2017-Sep-19 21:00N 59°20' E 018°05'0 0.0
2017-Sep-19 20:30N 59°20' E 018°05'0 0.0
2017-Sep-19 20:00N 59°20' E 018°05'0 0.0
2017-Sep-19 19:30N 59°20' E 018°05'0 0.0
2017-Sep-19 19:00N 59°20' E 018°05'0 0.0
2017-Sep-19 18:30N 59°20' E 018°05'0 0.0
2017-Sep-19 18:00N 59°20' E 018°05'0 0.0
2017-Sep-19 17:30N 59°20' E 018°05'0 0.0
2017-Sep-19 17:00N 59°20' E 018°05'0 0.0
2017-Sep-19 16:30N 59°20' E 018°05'3 5.3
2017-Sep-19 16:01N 59°19' E 018°10'611.4
2017-Sep-19 15:30N 59°23' E 018°19'3 5.7
2017-Sep-19 15:00N 59°25' E 018°21'8 1.3
2017-Sep-19 08:39N 59°24' E 018°37'2 4.0
2017-Sep-19 08:15N 59°24' E 018°34'3 8.8
2017-Sep-19 07:55N 59°25' E 018°28'4 8.8
2017-Sep-19 07:30N 59°25' E 018°21'3 6.7
2017-Sep-19 07:00N 59°22' E 018°18'611.6
2017-Sep-19 06:30N 59°19' E 018°09'2 5.0
2017-Sep-19 06:01N 59°20' E 018°05'0 0.0
2017-Sep-19 05:31N 59°20' E 018°05'0 0.0
2017-Sep-19 05:01N 59°20' E 018°05'0 0.0
2017-Sep-19 04:31N 59°20' E 018°05'0 0.0
2017-Sep-19 04:01N 59°20' E 018°05'0 0.0
2017-Sep-19 03:30N 59°20' E 018°05'0 0.0
2017-Sep-19 03:01N 59°20' E 018°05'0 0.0
2017-Sep-19 02:31N 59°20' E 018°05'0 0.0
2017-Sep-19 02:01N 59°20' E 018°05'0 0.0
2017-Sep-19 01:31N 59°20' E 018°05'0 0.0
2017-Sep-19 01:01N 59°20' E 018°05'0 0.0
2017-Sep-19 00:31N 59°20' E 018°05'0 0.0
2017-Sep-19 00:01N 59°20' E 018°05'0 0.0
2017-Sep-18 23:31N 59°20' E 018°05'0 0.0
2017-Sep-18 23:01N 59°20' E 018°05'0 0.0
2017-Sep-18 22:30N 59°20' E 018°05'0 0.0
2017-Sep-18 22:01N 59°20' E 018°05'0 0.0
2017-Sep-18 21:31N 59°20' E 018°05'0 0.0
2017-Sep-18 21:01N 59°20' E 018°05'0 0.0
2017-Sep-18 20:31N 59°20' E 018°05'0 0.0
2017-Sep-18 20:01N 59°20' E 018°05'0 0.0
2017-Sep-18 19:31N 59°20' E 018°05'0 0.0
2017-Sep-18 19:01N 59°20' E 018°05'0 0.0
2017-Sep-18 18:31N 59°20' E 018°05'0 0.0
2017-Sep-18 18:01N 59°20' E 018°05'0 0.0
2017-Sep-18 17:30N 59°20' E 018°05'0 0.0
2017-Sep-18 17:01N 59°20' E 018°05'0 0.0
2017-Sep-18 16:30N 59°20' E 018°05'0 0.0
2017-Sep-18 16:01N 59°20' E 018°05'0 0.0
2017-Sep-18 15:31N 59°20' E 018°05'0 0.0
2017-Sep-18 15:01N 59°20' E 018°05'0 0.0
2017-Sep-18 14:31N 59°20' E 018°05'0 0.0
2017-Sep-18 14:01N 59°20' E 018°05'0 0.0
2017-Sep-18 13:31N 59°20' E 018°05'0 0.0
2017-Sep-18 13:01N 59°20' E 018°05'0 0.0
2017-Sep-18 12:31N 59°20' E 018°05'0 0.0
2017-Sep-18 12:01N 59°20' E 018°05'0 0.0
2017-Sep-18 11:31N 59°20' E 018°05'0 0.0
2017-Sep-18 11:01N 59°20' E 018°05'0 0.0
2017-Sep-18 10:31N 59°20' E 018°05'0 0.0
2017-Sep-18 10:01N 59°20' E 018°05'0 0.0
2017-Sep-18 09:31N 59°20' E 018°05'0 0.0
2017-Sep-18 09:00N 59°20' E 018°05'0 0.0
2017-Sep-18 08:31N 59°20' E 018°05'0 0.0
2017-Sep-18 08:01N 59°20' E 018°05'0 0.0
2017-Sep-18 07:31N 59°20' E 018°05'0 0.0
2017-Sep-18 07:01N 59°20' E 018°05'0 0.0
2017-Sep-18 06:31N 59°20' E 018°05'0 0.0
2017-Sep-18 06:01N 59°20' E 018°05'0 0.0
2017-Sep-18 05:30N 59°20' E 018°05'0 0.0
2017-Sep-18 05:00N 59°20' E 018°05'0 0.0
2017-Sep-18 04:30N 59°20' E 018°05'0 0.0
2017-Sep-18 04:01N 59°20' E 018°05'0 0.0
2017-Sep-18 03:31N 59°20' E 018°05'0 0.0
2017-Sep-18 03:01N 59°20' E 018°05'0 0.0
2017-Sep-18 02:31N 59°20' E 018°05'0 0.0
2017-Sep-18 02:00N 59°20' E 018°05'0 0.0
2017-Sep-18 01:31N 59°20' E 018°05'0 0.0
2017-Sep-18 01:01N 59°20' E 018°05'0 0.0
2017-Sep-18 00:31N 59°20' E 018°05'0 0.0
2017-Sep-18 00:01N 59°20' E 018°05'0 0.0
2017-Sep-17 23:31N 59°20' E 018°05'0 0.0
2017-Sep-17 23:01N 59°20' E 018°05'0 0.0
2017-Sep-17 22:30N 59°20' E 018°05'0 0.0
2017-Sep-17 22:01N 59°20' E 018°05'0 0.0
2017-Sep-17 21:31N 59°20' E 018°05'0 0.0
2017-Sep-17 21:01N 59°20' E 018°05'0 0.0
2017-Sep-17 20:31N 59°20' E 018°05'0 0.0
2017-Sep-17 20:00N 59°20' E 018°05'0 0.0
2017-Sep-17 19:31N 59°20' E 018°05'0 0.0
2017-Sep-17 19:01N 59°20' E 018°05'0 0.0
2017-Sep-17 18:30N 59°20' E 018°05'0 0.0
2017-Sep-17 18:01N 59°20' E 018°05'0 0.0
2017-Sep-17 17:31N 59°20' E 018°05'0 0.0
2017-Sep-17 17:01N 59°20' E 018°05'0 0.0
2017-Sep-17 16:30N 59°20' E 018°05'0 0.0
2017-Sep-17 16:01N 59°20' E 018°05'0 0.0
2017-Sep-17 15:31N 59°20' E 018°05'0 0.0
2017-Sep-17 15:01N 59°20' E 018°05'0 0.0
2017-Sep-17 14:31N 59°20' E 018°05'0 0.0
2017-Sep-17 14:01N 59°20' E 018°05'4 8.9
2017-Sep-17 13:30N 59°19' E 018°13'2 4.9
2017-Sep-17 13:01N 59°18' E 018°18'5 9.0
2017-Sep-17 12:30N 59°15' E 018°23'8 2.6
2017-Sep-17 09:36N 59°07' E 018°26'4 8.7
2017-Sep-17 09:11N 59°05' E 018°21'212.4
2017-Sep-17 09:01N 59°03' E 018°20'5 0.7
2017-Sep-17 02:01N 59°08' E 018°24'0 0.0
2017-Sep-17 01:54N 59°08' E 018°24'0 0.0
2017-Sep-16 15:25N 59°08' E 018°25'1 0.4
2017-Sep-16 12:11N 59°06' E 018°24'315.7
2017-Sep-16 12:00N 59°04' E 018°20'4 1.1
2017-Sep-16 08:10N 59°08' E 018°24'0 2.2
2017-Sep-16 07:58N 59°07' E 018°24'1 0.1
2017-Sep-16 02:37N 59°08' E 018°24'0 0.0
2017-Sep-16 02:15N 59°08' E 018°24'0 0.0
2017-Sep-15 22:34N 59°08' E 018°24'0 0.0
2017-Sep-15 22:11N 59°08' E 018°24'0 0.0
2017-Sep-15 21:50N 59°08' E 018°24'0 0.0
2017-Sep-15 19:28N 59°08' E 018°24'714.7
2017-Sep-15 19:00N 59°02' E 018°19'4 7.3
2017-Sep-15 18:30N 58°60' E 018°25'8 5.5
2017-Sep-15 17:08N 59°07' E 018°27'2 3.5
2017-Sep-15 16:40N 59°09' E 018°27'211.1
2017-Sep-15 16:28N 59°11' E 018°27'4 8.2
2017-Sep-15 16:01N 59°14' E 018°22'5 9.7
2017-Sep-15 15:30N 59°18' E 018°18'3 5.0
2017-Sep-15 15:00N 59°19' E 018°13'5 9.3
2017-Sep-15 14:30N 59°20' E 018°04'0 0.1
2017-Sep-15 14:00N 59°20' E 018°05'0 0.0
2017-Sep-15 13:30N 59°20' E 018°05'0 0.0
2017-Sep-15 13:00N 59°20' E 018°05'0 0.0
2017-Sep-15 12:30N 59°20' E 018°05'0 0.0
2017-Sep-15 12:00N 59°20' E 018°05'0 0.0
2017-Sep-15 11:30N 59°20' E 018°04'0 0.0
2017-Sep-15 11:00N 59°20' E 018°04'0 0.0
2017-Sep-15 10:30N 59°20' E 018°05'0 0.0
2017-Sep-15 10:00N 59°20' E 018°05'0 0.0
2017-Sep-15 09:30N 59°20' E 018°04'0 0.5
2017-Sep-15 09:01N 59°20' E 018°05'510.6
2017-Sep-15 08:30N 59°21' E 018°15'5 9.2
2017-Sep-15 08:00N 59°24' E 018°21'4 7.3
2017-Sep-15 07:30N 59°27' E 018°24'3 6.6
2017-Sep-15 07:00N 59°28' E 018°31'3 5.0
2017-Sep-15 06:28N 59°26' E 018°27'1 0.1
2017-Sep-14 14:36N 59°25' E 018°28'112.2
2017-Sep-14 14:30N 59°25' E 018°26'3 6.8
2017-Sep-14 13:59N 59°23' E 018°20'4 8.6
2017-Sep-14 13:30N 59°21' E 018°14'510.0
2017-Sep-14 13:00N 59°20' E 018°04'0 0.0
2017-Sep-14 12:30N 59°20' E 018°04'0 0.0
2017-Sep-14 12:00N 59°20' E 018°04'0 0.0
2017-Sep-14 11:30N 59°20' E 018°04'0 0.0
2017-Sep-14 11:00N 59°20' E 018°04'0 0.0
2017-Sep-14 10:29N 59°20' E 018°04'0 0.0
2017-Sep-14 10:00N 59°20' E 018°04'0 0.0
2017-Sep-14 09:31N 59°20' E 018°04'0 0.0
2017-Sep-14 09:00N 59°20' E 018°04'0 0.0
2017-Sep-14 08:30N 59°20' E 018°04'0 0.0
2017-Sep-14 08:00N 59°20' E 018°04'0 0.0
2017-Sep-14 07:30N 59°20' E 018°04'0 0.0
2017-Sep-14 07:00N 59°20' E 018°04'0 0.0
2017-Sep-14 06:30N 59°20' E 018°04'0 0.0
2017-Sep-14 06:00N 59°20' E 018°05'0 0.0
2017-Sep-14 05:30N 59°20' E 018°05'0 0.0
2017-Sep-14 05:00N 59°20' E 018°04'0 0.0
2017-Sep-14 04:30N 59°20' E 018°04'0 0.0
2017-Sep-14 04:00N 59°20' E 018°04'0 0.0
2017-Sep-14 03:31N 59°20' E 018°04'0 0.0
2017-Sep-14 03:01N 59°20' E 018°04'0 0.0
2017-Sep-14 02:31N 59°20' E 018°04'0 0.0
2017-Sep-14 02:00N 59°20' E 018°04'0 0.0
2017-Sep-14 01:31N 59°20' E 018°05'0 0.0
2017-Sep-14 01:00N 59°20' E 018°05'0 0.0
2017-Sep-14 00:30N 59°20' E 018°04'0 0.0
2017-Sep-14 00:00N 59°20' E 018°05'0 0.0
2017-Sep-13 23:30N 59°20' E 018°05'0 0.0
2017-Sep-13 23:01N 59°20' E 018°05'0 0.0
2017-Sep-13 22:30N 59°20' E 018°05'0 0.0
2017-Sep-13 22:00N 59°20' E 018°05'0 0.0
2017-Sep-13 21:30N 59°20' E 018°05'0 0.0
2017-Sep-13 21:00N 59°20' E 018°05'0 0.0
2017-Sep-13 20:31N 59°20' E 018°05'0 0.0
2017-Sep-13 20:01N 59°20' E 018°05'0 0.0
2017-Sep-13 19:30N 59°20' E 018°04'0 0.0
2017-Sep-13 19:00N 59°20' E 018°05'0 0.0
2017-Sep-13 18:30N 59°20' E 018°05'0 0.0
2017-Sep-13 18:01N 59°20' E 018°05'0 0.0
2017-Sep-13 17:30N 59°20' E 018°04'0 0.0
2017-Sep-13 17:00N 59°20' E 018°04'0 0.0
2017-Sep-13 16:31N 59°20' E 018°04'3 5.6
2017-Sep-13 16:00N 59°19' E 018°10'510.8
2017-Sep-13 15:30N 59°23' E 018°19'3 5.5
2017-Sep-13 15:00N 59°25' E 018°21'4 0.5
2017-Sep-13 07:57N 59°25' E 018°28'4 7.9
2017-Sep-13 07:30N 59°25' E 018°21'3 6.8
2017-Sep-13 07:00N 59°23' E 018°18'611.7
2017-Sep-13 06:30N 59°19' E 018°09'2 4.9
2017-Sep-13 06:00N 59°20' E 018°05'0 0.0
2017-Sep-13 05:30N 59°20' E 018°05'0 0.0
2017-Sep-13 05:00N 59°20' E 018°05'0 0.0
2017-Sep-13 04:30N 59°20' E 018°05'0 0.0
2017-Sep-13 04:00N 59°20' E 018°05'0 0.0
2017-Sep-13 03:30N 59°20' E 018°05'0 0.0
2017-Sep-13 03:00N 59°20' E 018°05'0 0.0
2017-Sep-13 02:30N 59°20' E 018°05'0 0.0
2017-Sep-13 02:00N 59°20' E 018°05'0 0.0
2017-Sep-13 01:30N 59°20' E 018°05'0 0.0
2017-Sep-13 01:00N 59°20' E 018°05'0 0.0
2017-Sep-13 00:30N 59°20' E 018°05'0 0.0
2017-Sep-13 00:00N 59°20' E 018°05'0 0.0
2017-Sep-12 23:30N 59°20' E 018°05'0 0.0
2017-Sep-12 23:00N 59°20' E 018°05'0 0.0
2017-Sep-12 22:30N 59°20' E 018°05'0 0.0
2017-Sep-12 22:00N 59°20' E 018°05'0 0.0
2017-Sep-12 21:30N 59°20' E 018°05'0 0.0
2017-Sep-12 21:00N 59°20' E 018°05'0 0.0
2017-Sep-12 20:30N 59°20' E 018°05'0 0.0
2017-Sep-12 20:00N 59°20' E 018°05'0 0.0
2017-Sep-12 19:30N 59°20' E 018°05'0 0.0
2017-Sep-12 19:00N 59°20' E 018°05'0 0.0
2017-Sep-12 18:30N 59°20' E 018°05'0 0.0
2017-Sep-12 18:00N 59°20' E 018°05'0 0.0
2017-Sep-12 17:30N 59°20' E 018°05'0 0.0
2017-Sep-12 17:00N 59°20' E 018°05'0 0.0
2017-Sep-12 16:30N 59°20' E 018°05'3 5.5
2017-Sep-12 16:00N 59°19' E 018°10'611.3
2017-Sep-12 15:30N 59°23' E 018°19'3 5.2
2017-Sep-12 14:59N 59°25' E 018°21'15 3.0
2017-Sep-12 09:56N 59°29' E 018°50'11 5.7
2017-Sep-12 07:57N 59°25' E 018°29'4 8.0
2017-Sep-12 07:29N 59°25' E 018°21'3 6.9
2017-Sep-12 07:00N 59°22' E 018°18'611.9
2017-Sep-12 06:30N 59°19' E 018°09'2 4.4
2017-Sep-12 06:01N 59°20' E 018°05'0 0.0
2017-Sep-12 05:30N 59°20' E 018°05'0 0.0
2017-Sep-12 05:01N 59°20' E 018°05'0 0.0
2017-Sep-12 04:30N 59°20' E 018°05'0 0.0
2017-Sep-12 04:00N 59°20' E 018°05'0 0.0
2017-Sep-12 03:30N 59°20' E 018°05'0 0.0
2017-Sep-12 03:00N 59°20' E 018°05'0 0.0
2017-Sep-12 02:31N 59°20' E 018°05'0 0.0
2017-Sep-12 02:00N 59°20' E 018°05'0 0.0
2017-Sep-12 01:30N 59°20' E 018°05'0 0.0
2017-Sep-12 01:01N 59°20' E 018°05'0 0.0
2017-Sep-12 00:31N 59°20' E 018°05'0 0.0
2017-Sep-12 00:01N 59°20' E 018°05'0 0.0
2017-Sep-11 23:31N 59°20' E 018°05'0 0.0
2017-Sep-11 23:01N 59°20' E 018°05'0 0.0
2017-Sep-11 22:30N 59°20' E 018°05'0 0.0
2017-Sep-11 22:00N 59°20' E 018°05'0 0.0
2017-Sep-11 21:31N 59°20' E 018°05'0 0.0
2017-Sep-11 21:01N 59°20' E 018°05'0 0.0
2017-Sep-11 20:30N 59°20' E 018°05'0 0.0
2017-Sep-11 20:00N 59°20' E 018°05'0 0.0
2017-Sep-11 19:31N 59°20' E 018°05'0 0.0
2017-Sep-11 19:00N 59°20' E 018°05'0 0.0
2017-Sep-11 18:31N 59°20' E 018°05'0 0.0
2017-Sep-11 18:01N 59°20' E 018°05'0 0.0
2017-Sep-11 17:31N 59°20' E 018°05'0 0.0
2017-Sep-11 17:00N 59°20' E 018°05'  

Dump ship's entire track history